Hallie T — WDI8725 — position and weather

sailwx.info

Track history (hours):
 
Tides and Currents Weather Stations Pressure Air Temp Water Temp Dewpoint Dewpoint Depression Visibility Wind Speed Wind Dir Waves Ship Positions

Hallie T

Owner: Terral RiverService, Inc., Lake Providence, LA. More information available from US FCC via Universal Licensing System and Coast Guard Vessel Documentation Center.

Last reported at 2018-Jan-24 03:30 UTC. Time now 2018-Jan-24 03:59 UTC.
Position N 30°13' W 093°15'.

Length 30 m.

Type: Towing. MMSI: 367741510.

Date/timePositionNaut miles runAvg speedWind from/ knotsBaromVisibWave heightAir tempDewpointWater temp
2018-Jan-24 03:30N 30°13' W 093°15'0 0.0
2018-Jan-24 03:00N 30°13' W 093°15'0 0.1
2018-Jan-24 02:30N 30°13' W 093°15'0 0.0
2018-Jan-24 02:00N 30°13' W 093°15'0 0.6
2018-Jan-24 01:31N 30°13' W 093°16'2 4.2
2018-Jan-24 01:00N 30°12' W 093°18'1 1.6
2018-Jan-24 00:31N 30°13' W 093°19'0 0.8
2018-Jan-24 00:00N 30°12' W 093°19'1 2.0
2018-Jan-23 23:31N 30°12' W 093°18'2 4.8
2018-Jan-23 23:00N 30°13' W 093°15'0 0.0
2018-Jan-23 22:30N 30°13' W 093°15'0 0.2
2018-Jan-23 22:00N 30°13' W 093°15'2 4.7
2018-Jan-23 21:31N 30°12' W 093°18'1 1.6
2018-Jan-23 20:58N 30°13' W 093°19'0 0.0
2018-Jan-23 20:28N 30°13' W 093°19'0 0.2
2018-Jan-23 20:00N 30°13' W 093°19'0 0.3
2018-Jan-23 19:30N 30°12' W 093°19'0 0.0
2018-Jan-23 19:00N 30°12' W 093°19'0 0.2
2018-Jan-23 18:30N 30°12' W 093°19'0 0.0
2018-Jan-23 18:00N 30°12' W 093°19'0 0.0
2018-Jan-23 17:30N 30°12' W 093°19'0 0.0
2018-Jan-23 17:00N 30°12' W 093°19'0 0.3
2018-Jan-23 16:30N 30°13' W 093°19'0 0.6
2018-Jan-23 15:59N 30°12' W 093°19'0 0.3
2018-Jan-23 15:31N 30°12' W 093°19'0 0.1
2018-Jan-23 15:00N 30°12' W 093°19'0 0.0
2018-Jan-23 14:30N 30°12' W 093°19'0 0.0
2018-Jan-23 14:00N 30°12' W 093°19'0 0.0
2018-Jan-23 13:30N 30°12' W 093°19'0 0.0
2018-Jan-23 13:00N 30°12' W 093°19'0 0.0
2018-Jan-23 12:30N 30°12' W 093°19'0 0.0
2018-Jan-23 12:00N 30°12' W 093°19'0 0.0
2018-Jan-23 11:30N 30°12' W 093°19'0 0.0
2018-Jan-23 11:01N 30°12' W 093°19'0 0.1
2018-Jan-23 10:30N 30°12' W 093°19'0 0.0
2018-Jan-23 10:00N 30°12' W 093°19'0 0.0
2018-Jan-23 09:30N 30°12' W 093°19'0 0.6
2018-Jan-23 09:00N 30°13' W 093°19'2 3.7
2018-Jan-23 08:30N 30°12' W 093°17'3 5.5
2018-Jan-23 08:00N 30°14' W 093°15'1 1.9
2018-Jan-23 07:31N 30°15' W 093°14'1 2.7
2018-Jan-23 07:00N 30°15' W 093°12'0 0.0
2018-Jan-23 06:29N 30°15' W 093°12'1 1.6
2018-Jan-23 06:00N 30°15' W 093°13'2 3.1
2018-Jan-23 05:30N 30°15' W 093°15'2 2.6
2018-Jan-23 04:54N 30°13' W 093°15'0 0.1
2018-Jan-23 04:30N 30°13' W 093°15'1 3.0
2018-Jan-23 04:00N 30°12' W 093°17'2 3.1
2018-Jan-23 03:30N 30°12' W 093°18'1 1.1
2018-Jan-23 03:01N 30°13' W 093°19'0 0.6
2018-Jan-23 02:30N 30°12' W 093°19'0 0.0
2018-Jan-23 02:00N 30°12' W 093°19'0 0.4
2018-Jan-23 01:30N 30°12' W 093°19'0 0.0
2018-Jan-23 01:00N 30°12' W 093°19'0 0.4
2018-Jan-23 00:30N 30°13' W 093°19'0 0.6
2018-Jan-23 00:01N 30°12' W 093°19'1 1.4
2018-Jan-22 23:30N 30°12' W 093°18'1 2.8
2018-Jan-22 23:00N 30°12' W 093°16'1 2.1
2018-Jan-22 22:30N 30°13' W 093°15'0 0.0
2018-Jan-22 22:00N 30°13' W 093°15'0 0.3
2018-Jan-22 21:30N 30°13' W 093°15'2 4.7
2018-Jan-22 21:01N 30°12' W 093°18'1 1.7
2018-Jan-22 20:30N 30°13' W 093°19'0 0.2
2018-Jan-22 20:00N 30°13' W 093°19'0 0.3
2018-Jan-22 19:28N 30°12' W 093°19'0 0.1
2018-Jan-22 19:00N 30°12' W 093°19'0 0.2
2018-Jan-22 18:30N 30°12' W 093°19'0 0.0
2018-Jan-22 18:00N 30°12' W 093°19'0 0.0
2018-Jan-22 17:30N 30°12' W 093°19'0 0.0
2018-Jan-22 17:00N 30°12' W 093°19'0 0.0
2018-Jan-22 16:30N 30°12' W 093°19'0 0.5
2018-Jan-22 16:00N 30°12' W 093°19'0 0.4
2018-Jan-22 15:30N 30°12' W 093°19'0 0.0
2018-Jan-22 14:59N 30°12' W 093°19'0 0.0
2018-Jan-22 14:30N 30°12' W 093°19'0 0.0
2018-Jan-22 13:59N 30°12' W 093°19'0 0.0
2018-Jan-22 13:30N 30°12' W 093°19'0 0.0
2018-Jan-22 13:00N 30°12' W 093°19'0 0.0
2018-Jan-22 12:29N 30°12' W 093°19'0 0.0
2018-Jan-22 12:00N 30°12' W 093°19'0 0.3
2018-Jan-22 11:30N 30°12' W 093°19'0 0.3
2018-Jan-22 11:01N 30°12' W 093°19'0 0.1
2018-Jan-22 10:30N 30°12' W 093°19'0 0.0
2018-Jan-22 10:00N 30°12' W 093°19'0 0.0
2018-Jan-22 09:30N 30°12' W 093°19'0 0.0
2018-Jan-22 09:00N 30°12' W 093°19'0 0.0
2018-Jan-22 08:30N 30°12' W 093°19'0 0.0
2018-Jan-22 08:00N 30°12' W 093°19'0 0.0
2018-Jan-22 07:30N 30°12' W 093°19'0 0.0
2018-Jan-22 07:00N 30°12' W 093°19'0 0.0
2018-Jan-22 06:30N 30°12' W 093°19'0 0.0
2018-Jan-22 06:00N 30°12' W 093°19'0 0.0
2018-Jan-22 05:30N 30°12' W 093°19'0 0.0
2018-Jan-22 05:00N 30°12' W 093°19'0 0.0
2018-Jan-22 04:30N 30°12' W 093°19'0 0.0
2018-Jan-22 04:00N 30°12' W 093°19'0 0.0
2018-Jan-22 03:30N 30°12' W 093°19'0 0.0
2018-Jan-22 03:00N 30°12' W 093°19'0 0.0
2018-Jan-22 02:30N 30°12' W 093°19'0 0.0
2018-Jan-22 02:00N 30°12' W 093°19'1 1.1
2018-Jan-22 01:30N 30°13' W 093°19'1 1.4
2018-Jan-22 00:59N 30°12' W 093°18'1 2.4
2018-Jan-22 00:30N 30°12' W 093°17'1 3.0
2018-Jan-22 00:01N 30°13' W 093°15'0 0.0
2018-Jan-21 23:26N 30°13' W 093°15'0 0.0
2018-Jan-21 23:00N 30°13' W 093°15'0 0.0
2018-Jan-21 22:30N 30°13' W 093°15'0 0.5
2018-Jan-21 22:00N 30°13' W 093°16'2 5.0
2018-Jan-21 21:30N 30°12' W 093°18'1 1.5
2018-Jan-21 21:00N 30°12' W 093°19'0 0.1
2018-Jan-21 20:30N 30°12' W 093°19'0 1.0
2018-Jan-21 20:01N 30°13' W 093°19'0 1.0
2018-Jan-21 19:30N 30°13' W 093°18'1 2.3
2018-Jan-21 19:01N 30°12' W 093°17'1 1.8
2018-Jan-21 18:30N 30°12' W 093°16'1 2.2
2018-Jan-21 18:00N 30°13' W 093°15'0 0.4
2018-Jan-21 17:30N 30°13' W 093°15'0 0.2
2018-Jan-21 17:00N 30°13' W 093°15'0 0.0
2018-Jan-21 16:30N 30°13' W 093°15'0 0.0
2018-Jan-21 15:50N 30°13' W 093°15'0 0.0
2018-Jan-21 15:25N 30°13' W 093°15'0 0.0
2018-Jan-21 15:00N 30°13' W 093°15'0 0.0
2018-Jan-21 12:23N 30°13' W 093°15'0 0.0
2018-Jan-21 10:57N 30°13' W 093°15'0 0.0
2018-Jan-21 09:55N 30°13' W 093°15'0 0.0
2018-Jan-21 09:30N 30°13' W 093°15'0 0.0
2018-Jan-21 08:28N 30°13' W 093°15'0 0.0
2018-Jan-21 07:51N 30°13' W 093°15'0 0.0
2018-Jan-21 07:24N 30°13' W 093°15'0 0.0
2018-Jan-21 06:58N 30°13' W 093°15'0 0.0
2018-Jan-21 06:27N 30°13' W 093°15'0 0.0
2018-Jan-21 05:51N 30°13' W 093°15'0 0.0
2018-Jan-21 05:19N 30°13' W 093°15'0 0.0
2018-Jan-21 04:58N 30°13' W 093°15'0 0.0
2018-Jan-21 04:30N 30°13' W 093°15'0 0.0
2018-Jan-21 03:59N 30°13' W 093°15'0 0.0
2018-Jan-21 03:30N 30°13' W 093°15'0 0.0
2018-Jan-21 03:00N 30°13' W 093°15'0 0.0
2018-Jan-21 02:29N 30°13' W 093°15'0 0.0
2018-Jan-21 02:00N 30°13' W 093°15'0 0.0
2018-Jan-21 01:30N 30°13' W 093°15'0 0.0
2018-Jan-21 00:46N 30°13' W 093°15'0 0.0
2018-Jan-21 00:27N 30°13' W 093°15'0 0.0
2018-Jan-20 23:59N 30°13' W 093°15'0 0.0
2018-Jan-20 23:28N 30°13' W 093°15'0 0.0
2018-Jan-20 22:59N 30°13' W 093°15'0 0.0
2018-Jan-20 22:27N 30°13' W 093°15'0 0.0
2018-Jan-20 22:00N 30°13' W 093°15'0 0.0
2018-Jan-20 21:30N 30°13' W 093°15'0 0.0
2018-Jan-20 20:59N 30°13' W 093°15'0 0.0
2018-Jan-20 20:29N 30°13' W 093°15'0 0.0
2018-Jan-20 19:55N 30°13' W 093°15'0 0.0
2018-Jan-20 19:30N 30°13' W 093°15'0 0.0
2018-Jan-20 19:00N 30°13' W 093°15'0 0.0
2018-Jan-20 18:30N 30°13' W 093°15'0 0.0
2018-Jan-20 17:37N 30°13' W 093°15'0 0.0
2018-Jan-20 17:19N 30°13' W 093°15'0 0.3
2018-Jan-20 17:00N 30°13' W 093°15'3 5.1
2018-Jan-20 16:30N 30°13' W 093°18'1 1.7
2018-Jan-20 16:01N 30°12' W 093°19'4 3.5
2018-Jan-20 15:00N 30°13' W 093°15'0 0.1
2018-Jan-20 14:30N 30°13' W 093°15'0 0.0
2018-Jan-20 14:00N 30°13' W 093°15'0 0.0
2018-Jan-20 13:30N 30°13' W 093°15'0 0.0
2018-Jan-20 13:00N 30°13' W 093°15'0 0.0
2018-Jan-20 12:30N 30°13' W 093°15'0 0.0
2018-Jan-20 12:00N 30°13' W 093°15'0 0.0
2018-Jan-20 11:30N 30°13' W 093°15'0 0.0
2018-Jan-20 11:00N 30°13' W 093°15'0 0.0
2018-Jan-20 10:30N 30°13' W 093°15'0 0.0
2018-Jan-20 10:00N 30°13' W 093°15'0 0.0
2018-Jan-20 09:30N 30°13' W 093°15'0 0.0
2018-Jan-20 09:00N 30°13' W 093°15'0 0.0
2018-Jan-20 08:30N 30°13' W 093°15'0 0.0
2018-Jan-20 08:00N 30°13' W 093°15'0 0.0
2018-Jan-20 07:30N 30°13' W 093°15'0 0.0
2018-Jan-20 07:00N 30°13' W 093°15'0 0.0
2018-Jan-20 06:29N 30°13' W 093°15'0 0.0
2018-Jan-20 06:00N 30°13' W 093°15'0 0.0
2018-Jan-20 05:30N 30°13' W 093°15'0 0.0
2018-Jan-20 05:00N 30°13' W 093°15'0 0.0
2018-Jan-20 04:30N 30°13' W 093°15'0 0.0
2018-Jan-20 04:00N 30°13' W 093°15'0 0.0
2018-Jan-20 03:30N 30°13' W 093°15'0 0.0
2018-Jan-20 03:00N 30°13' W 093°15'0 0.0
2018-Jan-20 02:30N 30°13' W 093°15'0 0.0
2018-Jan-20 01:59N 30°13' W 093°15'0 0.0
2018-Jan-20 01:30N 30°13' W 093°15'0 0.0
2018-Jan-20 01:00N 30°13' W 093°15'0 0.0
2018-Jan-20 00:30N 30°13' W 093°15'0 0.0
2018-Jan-20 00:00N 30°13' W 093°15'0 0.0
2018-Jan-19 23:30N 30°13' W 093°15'0 0.2
2018-Jan-19 23:00N 30°13' W 093°15'0 0.2
2018-Jan-19 22:30N 30°13' W 093°15'0 0.1
2018-Jan-19 21:56N 30°13' W 093°15'0 0.0
2018-Jan-19 21:29N 30°13' W 093°15'0 0.0
2018-Jan-19 20:54N 30°13' W 093°15'0 0.0
2018-Jan-19 20:30N 30°13' W 093°15'0 0.0
2018-Jan-19 20:00N 30°13' W 093°15'0 0.0
2018-Jan-19 19:30N 30°13' W 093°15'0 0.1
2018-Jan-19 19:00N 30°13' W 093°15'2 3.9
2018-Jan-19 18:30N 30°12' W 093°17'3 5.4
2018-Jan-19 18:00N 30°10' W 093°19'2 4.3
2018-Jan-19 17:30N 30°08' W 093°20'0 0.6
2018-Jan-19 17:00N 30°08' W 093°20'0 0.0
2018-Jan-19 16:30N 30°08' W 093°20'0 0.0
2018-Jan-19 16:00N 30°08' W 093°20'2 1.9
2018-Jan-19 15:00N 30°06' W 093°19'0 0.7
2018-Jan-19 14:30N 30°06' W 093°18'1 1.7
2018-Jan-19 14:00N 30°05' W 093°18'0 0.5
2018-Jan-19 13:30N 30°05' W 093°17'2 3.2
2018-Jan-19 13:00N 30°04' W 093°16'2 3.6
2018-Jan-19 12:30N 30°02' W 093°15'2 3.5
2018-Jan-19 12:00N 30°01' W 093°14'2 3.5
2018-Jan-19 11:30N 29°59' W 093°13'2 3.1
2018-Jan-19 11:00N 29°58' W 093°12'2 4.2
2018-Jan-19 10:30N 29°57' W 093°10'2 3.3
2018-Jan-19 10:00N 29°56' W 093°08'2 4.1
2018-Jan-19 09:30N 29°56' W 093°06'2 4.2
2018-Jan-19 09:00N 29°56' W 093°04'37 3.6
2018-Jan-18 22:49N 29°51' W 092°22'1 3.3
2018-Jan-18 22:26N 29°51' W 092°20'1 2.2
2018-Jan-18 22:00N 29°50' W 092°19'2 3.8
2018-Jan-18 21:30N 29°49' W 092°17'2 4.2
2018-Jan-18 21:00N 29°48' W 092°15'2 4.5
2018-Jan-18 20:30N 29°47' W 092°13'1 1.3
2018-Jan-18 20:00N 29°47' W 092°12'2 3.0
2018-Jan-18 19:30N 29°47' W 092°11'1 2.9
2018-Jan-18 19:00N 29°47' W 092°09'0 0.2
2018-Jan-18 18:30N 29°47' W 092°09'2 3.5
2018-Jan-18 18:00N 29°47' W 092°07'2 3.6
2018-Jan-18 17:30N 29°48' W 092°05'2 3.2
2018-Jan-18 17:00N 29°49' W 092°03'2 3.4
2018-Jan-18 16:29N 29°49' W 092°01'  
Track history (hours):
 
Tides and Currents Weather Stations Pressure Air Temp Water Temp Dewpoint Dewpoint Depression Visibility Wind Speed Wind Dir Waves Ship Positions

Hallie T

Owner: Terral RiverService, Inc., Lake Providence, LA. More information available from US FCC via Universal Licensing System and Coast Guard Vessel Documentation Center.

Last reported at 2018-Jan-24 03:30 UTC. Time now 2018-Jan-24 03:59 UTC.
Position N 30°13' W 093°15'.

Length 30 m.

Type: Towing. MMSI: 367741510.

Date/timePositionNaut miles runAvg speedWind from/ knotsBaromVisibWave heightAir tempDewpointWater temp
2018-Jan-24 03:30N 30°13' W 093°15'0 0.0
2018-Jan-24 03:00N 30°13' W 093°15'0 0.1
2018-Jan-24 02:30N 30°13' W 093°15'0 0.0
2018-Jan-24 02:00N 30°13' W 093°15'0 0.6
2018-Jan-24 01:31N 30°13' W 093°16'2 4.2
2018-Jan-24 01:00N 30°12' W 093°18'1 1.6
2018-Jan-24 00:31N 30°13' W 093°19'0 0.8
2018-Jan-24 00:00N 30°12' W 093°19'1 2.0
2018-Jan-23 23:31N 30°12' W 093°18'2 4.8
2018-Jan-23 23:00N 30°13' W 093°15'0 0.0
2018-Jan-23 22:30N 30°13' W 093°15'0 0.2
2018-Jan-23 22:00N 30°13' W 093°15'2 4.7
2018-Jan-23 21:31N 30°12' W 093°18'1 1.6
2018-Jan-23 20:58N 30°13' W 093°19'0 0.0
2018-Jan-23 20:28N 30°13' W 093°19'0 0.2
2018-Jan-23 20:00N 30°13' W 093°19'0 0.3
2018-Jan-23 19:30N 30°12' W 093°19'0 0.0
2018-Jan-23 19:00N 30°12' W 093°19'0 0.2
2018-Jan-23 18:30N 30°12' W 093°19'0 0.0
2018-Jan-23 18:00N 30°12' W 093°19'0 0.0
2018-Jan-23 17:30N 30°12' W 093°19'0 0.0
2018-Jan-23 17:00N 30°12' W 093°19'0 0.3
2018-Jan-23 16:30N 30°13' W 093°19'0 0.6
2018-Jan-23 15:59N 30°12' W 093°19'0 0.3
2018-Jan-23 15:31N 30°12' W 093°19'0 0.1
2018-Jan-23 15:00N 30°12' W 093°19'0 0.0
2018-Jan-23 14:30N 30°12' W 093°19'0 0.0
2018-Jan-23 14:00N 30°12' W 093°19'0 0.0
2018-Jan-23 13:30N 30°12' W 093°19'0 0.0
2018-Jan-23 13:00N 30°12' W 093°19'0 0.0
2018-Jan-23 12:30N 30°12' W 093°19'0 0.0
2018-Jan-23 12:00N 30°12' W 093°19'0 0.0
2018-Jan-23 11:30N 30°12' W 093°19'0 0.0
2018-Jan-23 11:01N 30°12' W 093°19'0 0.1
2018-Jan-23 10:30N 30°12' W 093°19'0 0.0
2018-Jan-23 10:00N 30°12' W 093°19'0 0.0
2018-Jan-23 09:30N 30°12' W 093°19'0 0.6
2018-Jan-23 09:00N 30°13' W 093°19'2 3.7
2018-Jan-23 08:30N 30°12' W 093°17'3 5.5
2018-Jan-23 08:00N 30°14' W 093°15'1 1.9
2018-Jan-23 07:31N 30°15' W 093°14'1 2.7
2018-Jan-23 07:00N 30°15' W 093°12'0 0.0
2018-Jan-23 06:29N 30°15' W 093°12'1 1.6
2018-Jan-23 06:00N 30°15' W 093°13'2 3.1
2018-Jan-23 05:30N 30°15' W 093°15'2 2.6
2018-Jan-23 04:54N 30°13' W 093°15'0 0.1
2018-Jan-23 04:30N 30°13' W 093°15'1 3.0
2018-Jan-23 04:00N 30°12' W 093°17'2 3.1
2018-Jan-23 03:30N 30°12' W 093°18'1 1.1
2018-Jan-23 03:01N 30°13' W 093°19'0 0.6
2018-Jan-23 02:30N 30°12' W 093°19'0 0.0
2018-Jan-23 02:00N 30°12' W 093°19'0 0.4
2018-Jan-23 01:30N 30°12' W 093°19'0 0.0
2018-Jan-23 01:00N 30°12' W 093°19'0 0.4
2018-Jan-23 00:30N 30°13' W 093°19'0 0.6
2018-Jan-23 00:01N 30°12' W 093°19'1 1.4
2018-Jan-22 23:30N 30°12' W 093°18'1 2.8
2018-Jan-22 23:00N 30°12' W 093°16'1 2.1
2018-Jan-22 22:30N 30°13' W 093°15'0 0.0
2018-Jan-22 22:00N 30°13' W 093°15'0 0.3
2018-Jan-22 21:30N 30°13' W 093°15'2 4.7
2018-Jan-22 21:01N 30°12' W 093°18'1 1.7
2018-Jan-22 20:30N 30°13' W 093°19'0 0.2
2018-Jan-22 20:00N 30°13' W 093°19'0 0.3
2018-Jan-22 19:28N 30°12' W 093°19'0 0.1
2018-Jan-22 19:00N 30°12' W 093°19'0 0.2
2018-Jan-22 18:30N 30°12' W 093°19'0 0.0
2018-Jan-22 18:00N 30°12' W 093°19'0 0.0
2018-Jan-22 17:30N 30°12' W 093°19'0 0.0
2018-Jan-22 17:00N 30°12' W 093°19'0 0.0
2018-Jan-22 16:30N 30°12' W 093°19'0 0.5
2018-Jan-22 16:00N 30°12' W 093°19'0 0.4
2018-Jan-22 15:30N 30°12' W 093°19'0 0.0
2018-Jan-22 14:59N 30°12' W 093°19'0 0.0
2018-Jan-22 14:30N 30°12' W 093°19'0 0.0
2018-Jan-22 13:59N 30°12' W 093°19'0 0.0
2018-Jan-22 13:30N 30°12' W 093°19'0 0.0
2018-Jan-22 13:00N 30°12' W 093°19'0 0.0
2018-Jan-22 12:29N 30°12' W 093°19'0 0.0
2018-Jan-22 12:00N 30°12' W 093°19'0 0.3
2018-Jan-22 11:30N 30°12' W 093°19'0 0.3
2018-Jan-22 11:01N 30°12' W 093°19'0 0.1
2018-Jan-22 10:30N 30°12' W 093°19'0 0.0
2018-Jan-22 10:00N 30°12' W 093°19'0 0.0
2018-Jan-22 09:30N 30°12' W 093°19'0 0.0
2018-Jan-22 09:00N 30°12' W 093°19'0 0.0
2018-Jan-22 08:30N 30°12' W 093°19'0 0.0
2018-Jan-22 08:00N 30°12' W 093°19'0 0.0
2018-Jan-22 07:30N 30°12' W 093°19'0 0.0
2018-Jan-22 07:00N 30°12' W 093°19'0 0.0
2018-Jan-22 06:30N 30°12' W 093°19'0 0.0
2018-Jan-22 06:00N 30°12' W 093°19'0 0.0
2018-Jan-22 05:30N 30°12' W 093°19'0 0.0
2018-Jan-22 05:00N 30°12' W 093°19'0 0.0
2018-Jan-22 04:30N 30°12' W 093°19'0 0.0
2018-Jan-22 04:00N 30°12' W 093°19'0 0.0
2018-Jan-22 03:30N 30°12' W 093°19'0 0.0
2018-Jan-22 03:00N 30°12' W 093°19'0 0.0
2018-Jan-22 02:30N 30°12' W 093°19'0 0.0
2018-Jan-22 02:00N 30°12' W 093°19'1 1.1
2018-Jan-22 01:30N 30°13' W 093°19'1 1.4
2018-Jan-22 00:59N 30°12' W 093°18'1 2.4
2018-Jan-22 00:30N 30°12' W 093°17'1 3.0
2018-Jan-22 00:01N 30°13' W 093°15'0 0.0
2018-Jan-21 23:26N 30°13' W 093°15'0 0.0
2018-Jan-21 23:00N 30°13' W 093°15'0 0.0
2018-Jan-21 22:30N 30°13' W 093°15'0 0.5
2018-Jan-21 22:00N 30°13' W 093°16'2 5.0
2018-Jan-21 21:30N 30°12' W 093°18'1 1.5
2018-Jan-21 21:00N 30°12' W 093°19'0 0.1
2018-Jan-21 20:30N 30°12' W 093°19'0 1.0
2018-Jan-21 20:01N 30°13' W 093°19'0 1.0
2018-Jan-21 19:30N 30°13' W 093°18'1 2.3
2018-Jan-21 19:01N 30°12' W 093°17'1 1.8
2018-Jan-21 18:30N 30°12' W 093°16'1 2.2
2018-Jan-21 18:00N 30°13' W 093°15'0 0.4
2018-Jan-21 17:30N 30°13' W 093°15'0 0.2
2018-Jan-21 17:00N 30°13' W 093°15'0 0.0
2018-Jan-21 16:30N 30°13' W 093°15'0 0.0
2018-Jan-21 15:50N 30°13' W 093°15'0 0.0
2018-Jan-21 15:25N 30°13' W 093°15'0 0.0
2018-Jan-21 15:00N 30°13' W 093°15'0 0.0
2018-Jan-21 12:23N 30°13' W 093°15'0 0.0
2018-Jan-21 10:57N 30°13' W 093°15'0 0.0
2018-Jan-21 09:55N 30°13' W 093°15'0 0.0
2018-Jan-21 09:30N 30°13' W 093°15'0 0.0
2018-Jan-21 08:28N 30°13' W 093°15'0 0.0
2018-Jan-21 07:51N 30°13' W 093°15'0 0.0
2018-Jan-21 07:24N 30°13' W 093°15'0 0.0
2018-Jan-21 06:58N 30°13' W 093°15'0 0.0
2018-Jan-21 06:27N 30°13' W 093°15'0 0.0
2018-Jan-21 05:51N 30°13' W 093°15'0 0.0
2018-Jan-21 05:19N 30°13' W 093°15'0 0.0
2018-Jan-21 04:58N 30°13' W 093°15'0 0.0
2018-Jan-21 04:30N 30°13' W 093°15'0 0.0
2018-Jan-21 03:59N 30°13' W 093°15'0 0.0
2018-Jan-21 03:30N 30°13' W 093°15'0 0.0
2018-Jan-21 03:00N 30°13' W 093°15'0 0.0
2018-Jan-21 02:29N 30°13' W 093°15'0 0.0
2018-Jan-21 02:00N 30°13' W 093°15'0 0.0
2018-Jan-21 01:30N 30°13' W 093°15'0 0.0
2018-Jan-21 00:46N 30°13' W 093°15'0 0.0
2018-Jan-21 00:27N 30°13' W 093°15'0 0.0
2018-Jan-20 23:59N 30°13' W 093°15'0 0.0
2018-Jan-20 23:28N 30°13' W 093°15'0 0.0
2018-Jan-20 22:59N 30°13' W 093°15'0 0.0
2018-Jan-20 22:27N 30°13' W 093°15'0 0.0
2018-Jan-20 22:00N 30°13' W 093°15'0 0.0
2018-Jan-20 21:30N 30°13' W 093°15'0 0.0
2018-Jan-20 20:59N 30°13' W 093°15'0 0.0
2018-Jan-20 20:29N 30°13' W 093°15'0 0.0
2018-Jan-20 19:55N 30°13' W 093°15'0 0.0
2018-Jan-20 19:30N 30°13' W 093°15'0 0.0
2018-Jan-20 19:00N 30°13' W 093°15'0 0.0
2018-Jan-20 18:30N 30°13' W 093°15'0 0.0
2018-Jan-20 17:37N 30°13' W 093°15'0 0.0
2018-Jan-20 17:19N 30°13' W 093°15'0 0.3
2018-Jan-20 17:00N 30°13' W 093°15'3 5.1
2018-Jan-20 16:30N 30°13' W 093°18'1 1.7
2018-Jan-20 16:01N 30°12' W 093°19'4 3.5
2018-Jan-20 15:00N 30°13' W 093°15'0 0.1
2018-Jan-20 14:30N 30°13' W 093°15'0 0.0
2018-Jan-20 14:00N 30°13' W 093°15'0 0.0
2018-Jan-20 13:30N 30°13' W 093°15'0 0.0
2018-Jan-20 13:00N 30°13' W 093°15'0 0.0
2018-Jan-20 12:30N 30°13' W 093°15'0 0.0
2018-Jan-20 12:00N 30°13' W 093°15'0 0.0
2018-Jan-20 11:30N 30°13' W 093°15'0 0.0
2018-Jan-20 11:00N 30°13' W 093°15'0 0.0
2018-Jan-20 10:30N 30°13' W 093°15'0 0.0
2018-Jan-20 10:00N 30°13' W 093°15'0 0.0
2018-Jan-20 09:30N 30°13' W 093°15'0 0.0
2018-Jan-20 09:00N 30°13' W 093°15'0 0.0
2018-Jan-20 08:30N 30°13' W 093°15'0 0.0
2018-Jan-20 08:00N 30°13' W 093°15'0 0.0
2018-Jan-20 07:30N 30°13' W 093°15'0 0.0
2018-Jan-20 07:00N 30°13' W 093°15'0 0.0
2018-Jan-20 06:29N 30°13' W 093°15'0 0.0
2018-Jan-20 06:00N 30°13' W 093°15'0 0.0
2018-Jan-20 05:30N 30°13' W 093°15'0 0.0
2018-Jan-20 05:00N 30°13' W 093°15'0 0.0
2018-Jan-20 04:30N 30°13' W 093°15'0 0.0
2018-Jan-20 04:00N 30°13' W 093°15'0 0.0
2018-Jan-20 03:30N 30°13' W 093°15'0 0.0
2018-Jan-20 03:00N 30°13' W 093°15'0 0.0
2018-Jan-20 02:30N 30°13' W 093°15'0 0.0
2018-Jan-20 01:59N 30°13' W 093°15'0 0.0
2018-Jan-20 01:30N 30°13' W 093°15'0 0.0
2018-Jan-20 01:00N 30°13' W 093°15'0 0.0
2018-Jan-20 00:30N 30°13' W 093°15'0 0.0
2018-Jan-20 00:00N 30°13' W 093°15'0 0.0
2018-Jan-19 23:30N 30°13' W 093°15'0 0.2
2018-Jan-19 23:00N 30°13' W 093°15'0 0.2
2018-Jan-19 22:30N 30°13' W 093°15'0 0.1
2018-Jan-19 21:56N 30°13' W 093°15'0 0.0
2018-Jan-19 21:29N 30°13' W 093°15'0 0.0
2018-Jan-19 20:54N 30°13' W 093°15'0 0.0
2018-Jan-19 20:30N 30°13' W 093°15'0 0.0
2018-Jan-19 20:00N 30°13' W 093°15'0 0.0
2018-Jan-19 19:30N 30°13' W 093°15'0 0.1
2018-Jan-19 19:00N 30°13' W 093°15'2 3.9
2018-Jan-19 18:30N 30°12' W 093°17'3 5.4
2018-Jan-19 18:00N 30°10' W 093°19'2 4.3
2018-Jan-19 17:30N 30°08' W 093°20'0 0.6
2018-Jan-19 17:00N 30°08' W 093°20'0 0.0
2018-Jan-19 16:30N 30°08' W 093°20'0 0.0
2018-Jan-19 16:00N 30°08' W 093°20'2 1.9
2018-Jan-19 15:00N 30°06' W 093°19'0 0.7
2018-Jan-19 14:30N 30°06' W 093°18'1 1.7
2018-Jan-19 14:00N 30°05' W 093°18'0 0.5
2018-Jan-19 13:30N 30°05' W 093°17'2 3.2
2018-Jan-19 13:00N 30°04' W 093°16'2 3.6
2018-Jan-19 12:30N 30°02' W 093°15'2 3.5
2018-Jan-19 12:00N 30°01' W 093°14'2 3.5
2018-Jan-19 11:30N 29°59' W 093°13'2 3.1
2018-Jan-19 11:00N 29°58' W 093°12'2 4.2
2018-Jan-19 10:30N 29°57' W 093°10'2 3.3
2018-Jan-19 10:00N 29°56' W 093°08'2 4.1
2018-Jan-19 09:30N 29°56' W 093°06'2 4.2
2018-Jan-19 09:00N 29°56' W 093°04'37 3.6
2018-Jan-18 22:49N 29°51' W 092°22'1 3.3
2018-Jan-18 22:26N 29°51' W 092°20'1 2.2
2018-Jan-18 22:00N 29°50' W 092°19'2 3.8
2018-Jan-18 21:30N 29°49' W 092°17'2 4.2
2018-Jan-18 21:00N 29°48' W 092°15'2 4.5
2018-Jan-18 20:30N 29°47' W 092°13'1 1.3
2018-Jan-18 20:00N 29°47' W 092°12'2 3.0
2018-Jan-18 19:30N 29°47' W 092°11'1 2.9
2018-Jan-18 19:00N 29°47' W 092°09'0 0.2
2018-Jan-18 18:30N 29°47' W 092°09'2 3.5
2018-Jan-18 18:00N 29°47' W 092°07'2 3.6
2018-Jan-18 17:30N 29°48' W 092°05'2 3.2
2018-Jan-18 17:00N 29°49' W 092°03'2 3.4
2018-Jan-18 16:29N 29°49' W 092°01'  

Dump ship's entire track history